createdAt,value
2017-06-30T00:00:23.539Z,0
2017-06-30T00:01:08.924Z,0
2017-06-30T00:02:23.576Z,0
2017-06-30T00:03:08.657Z,0
2017-06-30T00:04:23.604Z,0
2017-06-30T00:05:09.036Z,0
2017-06-30T00:06:09.045Z,0
2017-06-30T00:07:09.073Z,0
2017-06-30T00:09:23.716Z,0
2017-06-30T00:10:09.125Z,0
2017-06-30T00:11:23.779Z,0
2017-06-30T00:12:23.807Z,0
2017-06-30T00:13:09.207Z,0
2017-06-30T00:14:08.935Z,0
2017-06-30T00:15:09.252Z,0
2017-06-30T00:16:09.298Z,0
2017-06-30T00:17:09.293Z,0
2017-06-30T00:18:09.349Z,0
2017-06-30T00:19:09.348Z,0
2017-06-30T00:20:09.385Z,0
2017-06-30T00:21:09.379Z,0
2017-06-30T00:22:09.441Z,0
2017-06-30T00:23:09.448Z,0
2017-06-30T00:24:24.063Z,0
2017-06-30T00:25:09.193Z,0
2017-06-30T00:26:09.537Z,0
2017-06-30T00:27:24.131Z,0
2017-06-30T00:28:09.592Z,0
2017-06-30T00:29:09.591Z,0
2017-06-30T00:30:09.636Z,0
2017-06-30T00:31:09.614Z,0
2017-06-30T00:32:24.260Z,0
2017-06-30T00:34:09.745Z,0
2017-06-30T00:35:09.756Z,0
2017-06-30T00:36:09.772Z,0
2017-06-30T00:37:09.795Z,0
2017-06-30T00:38:09.779Z,0
2017-06-30T00:39:09.842Z,0
2017-06-30T00:40:09.840Z,0
2017-06-30T00:41:24.492Z,0
2017-06-30T00:42:09.904Z,0
2017-06-30T00:43:09.919Z,0
2017-06-30T00:44:24.547Z,0
2017-06-30T00:45:09.653Z,0
2017-06-30T00:46:10.017Z,0
2017-06-30T00:47:10.000Z,0
2017-06-30T00:48:24.662Z,0
2017-06-30T00:49:24.349Z,0
2017-06-30T00:50:09.792Z,0
2017-06-30T00:51:10.116Z,0
2017-06-30T00:52:10.144Z,0
2017-06-30T00:53:24.772Z,0
2017-06-30T00:54:10.194Z,0
2017-06-30T00:55:10.206Z,0
2017-06-30T00:56:10.231Z,0
2017-06-30T00:58:10.287Z,0
2017-06-30T00:59:39.508Z,0
2017-06-30T01:00:10.323Z,0
2017-06-30T01:01:10.356Z,0
2017-06-30T01:03:10.446Z,0
2017-06-30T01:04:25.023Z,0
2017-06-30T01:05:25.045Z,0
2017-06-30T01:06:10.486Z,0
2017-06-30T01:07:10.185Z,0
2017-06-30T01:08:10.221Z,0
2017-06-30T01:09:10.529Z,0
2017-06-30T01:10:10.552Z,0
2017-06-30T01:11:10.276Z,0
2017-06-30T01:12:10.320Z,0
2017-06-30T01:13:10.656Z,0
2017-06-30T01:14:24.947Z,0
2017-06-30T01:15:10.376Z,0
2017-06-30T01:16:10.716Z,0
2017-06-30T01:18:10.469Z,0
2017-06-30T01:19:10.764Z,0
2017-06-30T01:20:25.414Z,0
2017-06-30T01:21:10.836Z,0
2017-06-30T01:22:10.858Z,0
2017-06-30T01:23:10.265Z,0
2017-06-30T01:24:10.284Z,0
2017-06-30T01:25:25.214Z,0
2017-06-30T01:26:25.228Z,0
2017-06-30T01:27:10.363Z,0
2017-06-30T01:28:10.992Z,0
2017-06-30T01:29:25.632Z,0
2017-06-30T01:30:11.030Z,0
2017-06-30T01:31:10.763Z,0
2017-06-30T01:32:25.072Z,0
2017-06-30T01:34:10.829Z,0
2017-06-30T01:35:25.773Z,0
2017-06-30T01:36:10.883Z,0
2017-06-30T01:37:10.587Z,0
2017-06-30T01:38:11.260Z,0
2017-06-30T01:39:25.846Z,0
2017-06-30T01:40:25.923Z,0
2017-06-30T01:41:11.321Z,0
2017-06-30T01:42:11.367Z,0
2017-06-30T01:43:11.358Z,0
2017-06-30T01:44:11.385Z,0
2017-06-30T01:45:11.418Z,0
2017-06-30T01:46:11.402Z,0
2017-06-30T01:47:11.481Z,0
2017-06-30T01:48:11.481Z,0
2017-06-30T01:49:11.505Z,0
2017-06-30T01:50:11.533Z,0
2017-06-30T01:51:11.533Z,0
2017-06-30T01:52:11.559Z,0
2017-06-30T01:53:11.270Z,0
2017-06-30T01:54:11.681Z,0
2017-06-30T01:55:11.629Z,0
2017-06-30T01:56:26.272Z,0
2017-06-30T01:57:26.303Z,0
2017-06-30T01:58:11.697Z,0
2017-06-30T01:59:26.330Z,0
2017-06-30T02:00:11.751Z,0
2017-06-30T02:01:11.807Z,0
2017-06-30T02:02:11.807Z,0
2017-06-30T02:03:11.879Z,0
2017-06-30T02:04:11.921Z,0
2017-06-30T02:05:11.894Z,0
2017-06-30T02:06:11.885Z,0
2017-06-30T02:07:26.512Z,0
2017-06-30T02:08:11.952Z,0
2017-06-30T02:09:11.965Z,0
2017-06-30T02:10:26.289Z,0
2017-06-30T02:11:11.723Z,0
2017-06-30T02:12:12.025Z,0
2017-06-30T02:13:26.721Z,0
2017-06-30T02:14:11.790Z,0
2017-06-30T02:15:12.128Z,0
2017-06-30T02:16:12.165Z,0
2017-06-30T02:17:26.768Z,0
2017-06-30T02:18:12.199Z,0
2017-06-30T02:19:12.214Z,0
2017-06-30T02:20:11.947Z,0
2017-06-30T02:21:12.265Z,0
2017-06-30T02:22:12.290Z,0
2017-06-30T02:23:26.886Z,0
2017-06-30T02:24:12.314Z,0
2017-06-30T02:25:12.366Z,0
2017-06-30T02:26:12.382Z,0
2017-06-30T02:27:12.418Z,0
2017-06-30T02:28:27.019Z,0
2017-06-30T02:29:12.463Z,0
2017-06-30T02:30:27.076Z,0
2017-06-30T02:31:12.501Z,0
2017-06-30T02:32:12.545Z,0
2017-06-30T02:33:26.850Z,0
2017-06-30T02:34:12.592Z,0
2017-06-30T02:35:12.284Z,0
2017-06-30T02:36:12.625Z,0
2017-06-30T02:37:27.297Z,0
2017-06-30T02:38:27.261Z,0
2017-06-30T02:40:12.395Z,0
2017-06-30T02:41:12.711Z,0
2017-06-30T02:42:12.469Z,0
2017-06-30T02:43:12.780Z,0
2017-06-30T02:44:12.817Z,0
2017-06-30T02:45:12.828Z,0
2017-06-30T02:46:27.162Z,0
2017-06-30T02:47:12.863Z,0
2017-06-30T02:48:12.888Z,0
2017-06-30T02:49:12.920Z,0
2017-06-30T02:50:12.656Z,0
2017-06-30T02:51:12.998Z,0
2017-06-30T02:52:12.984Z,0
2017-06-30T02:53:13.016Z,0
2017-06-30T02:54:13.021Z,0
2017-06-30T02:55:42.282Z,0
2017-06-30T02:56:12.776Z,0
2017-06-30T02:57:12.827Z,0
2017-06-30T02:58:13.159Z,0
2017-06-30T02:59:13.166Z,0
2017-06-30T03:00:12.564Z,0
2017-06-30T03:01:13.190Z,0
2017-06-30T03:02:13.253Z,0
2017-06-30T03:03:27.860Z,0
2017-06-30T03:04:13.280Z,0
2017-06-30T03:05:13.301Z,0
2017-06-30T03:06:13.330Z,0
2017-06-30T03:07:27.970Z,0
2017-06-30T03:08:13.388Z,0
2017-06-30T03:10:28.028Z,0
2017-06-30T03:11:13.420Z,0
2017-06-30T03:12:13.480Z,0
2017-06-30T03:13:13.185Z,0
2017-06-30T03:14:13.534Z,0
2017-06-30T03:15:13.544Z,5
2017-06-30T03:16:13.583Z,5
2017-06-30T03:17:13.273Z,0
2017-06-30T03:18:13.627Z,0
2017-06-30T03:20:28.260Z,0
2017-06-30T03:21:13.681Z,0
2017-06-30T03:22:13.724Z,0
2017-06-30T03:23:13.734Z,0
2017-06-30T03:24:13.771Z,0
2017-06-30T03:26:13.810Z,0
2017-06-30T03:27:28.433Z,0
2017-06-30T03:28:13.536Z,0
2017-06-30T03:29:28.479Z,0
2017-06-30T03:30:13.898Z,0
2017-06-30T03:31:28.531Z,0
2017-06-30T03:32:28.538Z,0
2017-06-30T03:33:28.577Z,0
2017-06-30T03:34:13.677Z,0
2017-06-30T03:35:14.040Z,0
2017-06-30T03:36:28.655Z,5
2017-06-30T03:37:14.067Z,5
2017-06-30T03:38:14.099Z,5
2017-06-30T03:39:28.701Z,5
2017-06-30T03:40:14.466Z,5
2017-06-30T03:41:28.761Z,5
2017-06-30T03:42:28.483Z,5
2017-06-30T03:43:14.225Z,5
2017-06-30T03:44:14.234Z,5
2017-06-30T03:45:13.933Z,5
2017-06-30T03:46:14.289Z,5
2017-06-30T03:47:28.915Z,10
2017-06-30T03:48:28.921Z,10
2017-06-30T03:49:14.052Z,10
2017-06-30T03:50:14.376Z,10
2017-06-30T03:51:29.004Z,10
2017-06-30T03:52:14.422Z,10
2017-06-30T03:54:14.476Z,10
2017-06-30T03:56:14.232Z,10
2017-06-30T03:57:14.229Z,10
2017-06-30T03:58:29.174Z,15
2017-06-30T03:59:14.573Z,15
2017-06-30T04:00:14.691Z,10
2017-06-30T04:01:14.650Z,15
2017-06-30T04:02:29.259Z,10
2017-06-30T04:03:14.681Z,15
2017-06-30T04:04:29.309Z,15
2017-06-30T04:05:29.326Z,15
2017-06-30T04:06:14.757Z,15
2017-06-30T04:07:14.804Z,15
2017-06-30T04:08:14.793Z,15
2017-06-30T04:09:14.823Z,15
2017-06-30T04:10:14.850Z,15
2017-06-30T04:11:29.500Z,15
2017-06-30T04:12:29.486Z,15
2017-06-30T04:13:14.642Z,10
2017-06-30T04:14:29.558Z,15
2017-06-30T04:15:14.973Z,10
2017-06-30T04:16:14.696Z,10
2017-06-30T04:17:15.014Z,15
2017-06-30T04:18:15.054Z,10
2017-06-30T04:19:14.761Z,10
2017-06-30T04:20:14.794Z,10
2017-06-30T04:21:15.116Z,15
2017-06-30T04:22:15.157Z,15
2017-06-30T04:23:15.154Z,15
2017-06-30T04:24:29.794Z,15
2017-06-30T04:25:14.908Z,15
2017-06-30T04:26:14.943Z,15
2017-06-30T04:27:15.258Z,15
2017-06-30T04:28:15.309Z,15
2017-06-30T04:30:29.938Z,15
2017-06-30T04:31:15.063Z,15
2017-06-30T04:32:15.389Z,15
2017-06-30T04:33:15.388Z,20
2017-06-30T04:34:15.423Z,15
2017-06-30T04:35:15.440Z,15
2017-06-30T04:36:30.090Z,15
2017-06-30T04:37:15.514Z,20
2017-06-30T04:38:15.526Z,20
2017-06-30T04:39:15.562Z,20
2017-06-30T04:40:30.162Z,15
2017-06-30T04:41:15.608Z,15
2017-06-30T04:42:30.226Z,15
2017-06-30T04:43:15.652Z,15
2017-06-30T04:45:30.298Z,15
2017-06-30T04:46:15.729Z,15
2017-06-30T04:47:15.730Z,15
2017-06-30T04:48:15.754Z,20
2017-06-30T04:49:30.391Z,15
2017-06-30T04:50:15.826Z,15
2017-06-30T04:51:15.838Z,15
2017-06-30T04:52:15.857Z,15
2017-06-30T04:53:15.885Z,10
2017-06-30T04:54:15.911Z,15
2017-06-30T04:55:30.530Z,20
2017-06-30T04:56:15.969Z,20
2017-06-30T04:57:15.967Z,15
2017-06-30T04:58:15.693Z,20
2017-06-30T04:59:15.717Z,15
2017-06-30T05:00:30.717Z,15
2017-06-30T05:02:16.097Z,15
2017-06-30T05:03:16.134Z,15
2017-06-30T05:04:16.143Z,15
2017-06-30T05:05:30.771Z,15
2017-06-30T05:06:16.183Z,15
2017-06-30T05:07:30.887Z,15
2017-06-30T05:08:30.853Z,15
2017-06-30T05:09:16.256Z,15
2017-06-30T05:10:30.904Z,20
2017-06-30T05:11:16.315Z,20
2017-06-30T05:12:16.347Z,25
2017-06-30T05:13:16.357Z,25
2017-06-30T05:14:16.408Z,20
2017-06-30T05:15:16.419Z,20
2017-06-30T05:16:31.042Z,15
2017-06-30T05:17:30.756Z,15
2017-06-30T05:18:16.454Z,15
2017-06-30T05:19:16.524Z,15
2017-06-30T05:20:16.513Z,20
2017-06-30T05:21:31.166Z,15
2017-06-30T05:23:31.212Z,15
2017-06-30T05:24:16.622Z,20
2017-06-30T05:25:16.669Z,20
2017-06-30T05:26:31.277Z,30
2017-06-30T05:28:31.011Z,30
2017-06-30T05:29:16.736Z,30
2017-06-30T05:30:16.523Z,30
2017-06-30T05:31:16.797Z,30
2017-06-30T05:32:16.840Z,30
2017-06-30T05:33:31.443Z,30
2017-06-30T05:36:16.906Z,30
2017-06-30T05:37:31.549Z,25
2017-06-30T05:38:16.645Z,25
2017-06-30T05:39:16.999Z,25
2017-06-30T05:40:31.607Z,25
2017-06-30T05:41:16.724Z,25
2017-06-30T05:42:31.355Z,20
2017-06-30T05:43:17.065Z,25
2017-06-30T05:44:17.169Z,30
2017-06-30T05:45:16.804Z,30
2017-06-30T05:46:17.165Z,30
2017-06-30T05:47:31.777Z,35
2017-06-30T05:48:31.813Z,35
2017-06-30T05:49:31.821Z,30
2017-06-30T05:51:17.268Z,30
2017-06-30T05:52:17.299Z,35
2017-06-30T05:53:31.599Z,40
2017-06-30T05:54:17.332Z,50
2017-06-30T05:55:31.973Z,45
2017-06-30T05:56:17.407Z,50
2017-06-30T05:57:31.716Z,50
2017-06-30T05:59:17.455Z,45
2017-06-30T06:00:17.575Z,40
2017-06-30T06:01:17.531Z,40
2017-06-30T06:02:17.548Z,45
2017-06-30T06:03:32.160Z,45
2017-06-30T06:04:17.597Z,50
2017-06-30T06:05:32.246Z,50
2017-06-30T06:07:17.642Z,45
2017-06-30T06:08:17.357Z,35
2017-06-30T06:09:32.308Z,40
2017-06-30T06:10:32.322Z,50
2017-06-30T06:11:17.759Z,45
2017-06-30T06:12:17.781Z,45
2017-06-30T06:13:32.408Z,45
2017-06-30T06:14:17.814Z,50
2017-06-30T06:15:18.189Z,45
2017-06-30T06:16:17.866Z,40
2017-06-30T06:17:17.895Z,45
2017-06-30T06:18:17.902Z,45
2017-06-30T06:19:17.967Z,40
2017-06-30T06:20:32.587Z,40
2017-06-30T06:21:18.006Z,50
2017-06-30T06:22:18.031Z,40
2017-06-30T06:23:32.662Z,35
2017-06-30T06:24:18.109Z,35
2017-06-30T06:25:18.065Z,35
2017-06-30T06:26:18.118Z,45
2017-06-30T06:27:18.135Z,40
2017-06-30T06:28:32.483Z,45
2017-06-30T06:29:18.168Z,60
2017-06-30T06:30:18.326Z,65
2017-06-30T06:31:18.511Z,65
2017-06-30T06:33:18.278Z,80
2017-06-30T06:34:18.302Z,70
2017-06-30T06:35:18.440Z,70
2017-06-30T06:36:18.330Z,60
2017-06-30T06:37:18.377Z,60
2017-06-30T06:38:18.377Z,60
2017-06-30T06:39:18.447Z,65
2017-06-30T06:40:18.423Z,70
2017-06-30T06:41:18.492Z,60
2017-06-30T06:42:18.335Z,65
2017-06-30T06:43:18.202Z,70
2017-06-30T06:46:18.272Z,80
2017-06-30T06:47:32.911Z,85
2017-06-30T06:48:18.023Z,80
2017-06-30T06:49:18.360Z,75
2017-06-30T06:50:32.986Z,75
2017-06-30T06:51:33.319Z,70
2017-06-30T06:52:33.344Z,65
2017-06-30T06:53:18.446Z,65
2017-06-30T06:54:18.853Z,65
2017-06-30T06:55:33.400Z,80
2017-06-30T06:56:18.515Z,80
2017-06-30T06:57:18.593Z,80
2017-06-30T06:58:18.587Z,75
2017-06-30T06:59:18.581Z,80
2017-06-30T07:00:18.682Z,80
2017-06-30T07:01:33.541Z,70
2017-06-30T07:02:18.682Z,75
2017-06-30T07:03:33.600Z,75
2017-06-30T07:04:19.050Z,75
2017-06-30T07:05:19.040Z,70
2017-06-30T07:06:18.754Z,60
2017-06-30T07:07:19.102Z,70
2017-06-30T07:09:33.760Z,60
2017-06-30T07:10:19.177Z,70
2017-06-30T07:12:19.211Z,70
2017-06-30T07:13:19.251Z,75
2017-06-30T07:14:19.450Z,75
2017-06-30T07:15:18.999Z,70
2017-06-30T07:16:19.311Z,80
2017-06-30T07:17:19.185Z,80
2017-06-30T07:18:19.342Z,70
2017-06-30T07:19:19.096Z,75
2017-06-30T07:20:19.501Z,80
2017-06-30T07:21:19.459Z,75
2017-06-30T07:22:19.450Z,75
2017-06-30T07:23:19.169Z,80
2017-06-30T07:24:34.116Z,80
2017-06-30T07:25:19.230Z,70
2017-06-30T07:26:19.568Z,85
2017-06-30T07:28:19.613Z,90
2017-06-30T07:29:19.617Z,85
2017-06-30T07:30:33.988Z,85
2017-06-30T07:31:19.689Z,85
2017-06-30T07:33:19.479Z,85
2017-06-30T07:34:34.645Z,90
2017-06-30T07:35:19.792Z,90
2017-06-30T07:36:19.532Z,100
2017-06-30T07:37:34.106Z,90
2017-06-30T07:39:34.462Z,85
2017-06-30T07:40:34.507Z,80
2017-06-30T07:41:19.921Z,80
2017-06-30T07:42:19.952Z,80
2017-06-30T07:43:19.990Z,95
2017-06-30T07:44:19.994Z,85
2017-06-30T07:45:20.063Z,90
2017-06-30T07:46:20.030Z,90
2017-06-30T07:47:20.029Z,90
2017-06-30T07:48:19.900Z,80
2017-06-30T07:49:20.122Z,70
2017-06-30T07:50:34.444Z,70
2017-06-30T07:51:20.172Z,65
2017-06-30T07:52:20.197Z,60
2017-06-30T07:53:19.886Z,65
2017-06-30T07:54:20.242Z,60
2017-06-30T07:55:34.870Z,80
2017-06-30T07:56:20.275Z,70
2017-06-30T07:57:20.329Z,65
2017-06-30T07:58:20.013Z,65
2017-06-30T07:59:20.355Z,55
2017-06-30T08:00:20.056Z,60
2017-06-30T08:01:20.415Z,65
2017-06-30T08:02:35.038Z,90
2017-06-30T08:03:20.473Z,95
2017-06-30T08:05:35.157Z,95
2017-06-30T08:06:20.529Z,95
2017-06-30T08:07:35.164Z,115
2017-06-30T08:08:20.575Z,115
2017-06-30T08:09:20.306Z,115
2017-06-30T08:10:20.043Z,125
2017-06-30T08:11:20.026Z,125
2017-06-30T08:13:20.393Z,120
2017-06-30T08:14:20.740Z,115
2017-06-30T08:15:20.739Z,120
2017-06-30T08:16:35.390Z,120
2017-06-30T08:17:20.798Z,115
2017-06-30T08:19:35.445Z,100
2017-06-30T08:20:20.934Z,100
2017-06-30T08:21:20.298Z,105
2017-06-30T08:22:20.905Z,105
2017-06-30T08:23:20.627Z,110
2017-06-30T08:24:35.551Z,95
2017-06-30T08:25:20.691Z,90
2017-06-30T08:26:21.020Z,105
2017-06-30T08:27:50.249Z,110
2017-06-30T08:28:20.769Z,110
2017-06-30T08:29:20.770Z,135
2017-06-30T08:30:20.998Z,145
2017-06-30T08:31:35.764Z,150
2017-06-30T08:32:21.166Z,145
2017-06-30T08:33:35.910Z,125
2017-06-30T08:34:21.224Z,120
2017-06-30T08:35:35.823Z,120
2017-06-30T08:36:35.863Z,120
2017-06-30T08:37:21.277Z,115
2017-06-30T08:38:35.612Z,120
2017-06-30T08:39:21.389Z,140
2017-06-30T08:40:21.366Z,125
2017-06-30T08:41:21.065Z,130
2017-06-30T08:42:35.988Z,120
2017-06-30T08:43:36.037Z,120
2017-06-30T08:44:21.757Z,115
2017-06-30T08:45:21.499Z,100
2017-06-30T08:46:36.094Z,100
2017-06-30T08:47:21.551Z,100
2017-06-30T08:49:21.591Z,95
2017-06-30T08:50:21.328Z,95
2017-06-30T08:51:21.676Z,115
2017-06-30T08:52:21.325Z,110
2017-06-30T08:53:21.383Z,105
2017-06-30T08:54:35.726Z,105
2017-06-30T08:55:21.430Z,100
2017-06-30T08:56:21.127Z,95
2017-06-30T08:57:21.515Z,90
2017-06-30T08:58:21.154Z,90
2017-06-30T08:59:36.306Z,105
2017-06-30T09:00:21.921Z,105
2017-06-30T09:01:21.876Z,110
2017-06-30T09:02:21.904Z,120
2017-06-30T09:03:36.836Z,145
2017-06-30T09:04:22.019Z,140
2017-06-30T09:05:21.995Z,115
2017-06-30T09:06:21.377Z,115
2017-06-30T09:07:21.415Z,115
2017-06-30T09:08:22.036Z,130
2017-06-30T09:09:36.667Z,130
2017-06-30T09:11:21.800Z,165
2017-06-30T09:12:22.162Z,170
2017-06-30T09:13:22.162Z,155
2017-06-30T09:14:36.839Z,160
2017-06-30T09:15:51.422Z,170
2017-06-30T09:16:21.597Z,165
2017-06-30T09:17:22.277Z,150
2017-06-30T09:18:22.283Z,160
2017-06-30T09:19:22.024Z,130
2017-06-30T09:20:22.441Z,115
2017-06-30T09:21:22.389Z,100
2017-06-30T09:22:22.373Z,100
2017-06-30T09:23:22.125Z,100
2017-06-30T09:24:22.442Z,100
2017-06-30T09:25:22.160Z,105
2017-06-30T09:26:22.504Z,90
2017-06-30T09:27:22.198Z,95
2017-06-30T09:28:22.580Z,100
2017-06-30T09:29:22.571Z,100
2017-06-30T09:30:37.164Z,90
2017-06-30T09:31:37.229Z,105
2017-06-30T09:32:22.620Z,110
2017-06-30T09:33:22.043Z,105
2017-06-30T09:34:22.694Z,115
2017-06-30T09:35:22.425Z,110
2017-06-30T09:36:22.752Z,105
2017-06-30T09:37:22.792Z,85
2017-06-30T09:38:22.792Z,80
2017-06-30T09:39:22.905Z,95
2017-06-30T09:40:22.848Z,110
2017-06-30T09:41:22.859Z,120
2017-06-30T09:42:37.506Z,130
2017-06-30T09:43:22.961Z,130
2017-06-30T09:44:22.944Z,130
2017-06-30T09:45:22.953Z,140
2017-06-30T09:46:22.982Z,130
2017-06-30T09:49:22.788Z,130
2017-06-30T09:50:23.129Z,135
2017-06-30T09:51:23.124Z,125
2017-06-30T09:52:23.109Z,110
2017-06-30T09:53:23.261Z,140
2017-06-30T09:54:22.888Z,155
2017-06-30T09:55:22.906Z,160
2017-06-30T09:56:23.221Z,150
2017-06-30T09:57:23.315Z,140
2017-06-30T09:58:23.283Z,145
2017-06-30T09:59:23.341Z,130
2017-06-30T10:00:23.367Z,110
2017-06-30T10:01:23.370Z,115
2017-06-30T10:02:37.963Z,150
2017-06-30T10:03:23.414Z,155
2017-06-30T10:04:52.646Z,160
2017-06-30T10:05:38.073Z,170
2017-06-30T10:06:23.197Z,180
2017-06-30T10:08:23.606Z,160
2017-06-30T10:09:22.979Z,140
2017-06-30T10:10:38.168Z,115
2017-06-30T10:11:38.270Z,120
2017-06-30T10:12:23.635Z,120
2017-06-30T10:13:23.671Z,105
2017-06-30T10:14:23.426Z,100
2017-06-30T10:15:23.721Z,100
2017-06-30T10:16:23.734Z,90
2017-06-30T10:17:23.783Z,125
2017-06-30T10:18:38.379Z,145
2017-06-30T10:19:23.812Z,160
2017-06-30T10:20:23.889Z,175
2017-06-30T10:21:23.854Z,175
2017-06-30T10:22:38.497Z,170
2017-06-30T10:23:38.664Z,185
2017-06-30T10:24:23.942Z,185
2017-06-30T10:25:38.568Z,185
2017-06-30T10:26:24.035Z,175
2017-06-30T10:27:38.600Z,175
2017-06-30T10:28:24.050Z,180
2017-06-30T10:29:24.150Z,140
2017-06-30T10:30:24.154Z,105
2017-06-30T10:31:23.804Z,125
2017-06-30T10:32:24.147Z,135
2017-06-30T10:33:24.160Z,160
2017-06-30T10:34:53.079Z,170
2017-06-30T10:35:24.216Z,175
2017-06-30T10:36:24.251Z,145
2017-06-30T10:37:24.256Z,115
2017-06-30T10:38:24.307Z,125
2017-06-30T10:39:24.370Z,130
2017-06-30T10:40:24.364Z,140
2017-06-30T10:41:24.352Z,160
2017-06-30T10:42:24.095Z,140
2017-06-30T10:43:24.397Z,125
2017-06-30T10:44:39.047Z,140
2017-06-30T10:45:24.468Z,150
2017-06-30T10:46:24.491Z,145
2017-06-30T10:47:24.542Z,165
2017-06-30T10:48:24.521Z,195
2017-06-30T10:49:24.272Z,175
2017-06-30T10:50:39.192Z,185
2017-06-30T10:51:24.656Z,190
2017-06-30T10:53:24.669Z,170
2017-06-30T10:54:24.382Z,155
2017-06-30T10:55:24.521Z,145
2017-06-30T10:56:24.443Z,150
2017-06-30T10:57:24.784Z,150
2017-06-30T10:58:24.785Z,150
2017-06-30T10:59:39.485Z,150
2017-06-30T11:00:24.825Z,145
2017-06-30T11:01:24.881Z,160
2017-06-30T11:02:39.492Z,155
2017-06-30T11:03:24.941Z,165
2017-06-30T11:04:24.999Z,175
2017-06-30T11:05:39.580Z,155
2017-06-30T11:06:24.988Z,155
2017-06-30T11:07:24.709Z,145
2017-06-30T11:08:25.123Z,150
2017-06-30T11:09:25.064Z,150
2017-06-30T11:10:25.131Z,170
2017-06-30T11:11:25.321Z,160
2017-06-30T11:12:25.212Z,150
2017-06-30T11:13:25.172Z,150
2017-06-30T11:14:24.906Z,150
2017-06-30T11:15:24.910Z,160
2017-06-30T11:16:25.267Z,170
2017-06-30T11:17:25.284Z,155
2017-06-30T11:18:25.315Z,150
2017-06-30T11:19:25.338Z,150
2017-06-30T11:20:25.364Z,130
2017-06-30T11:21:25.076Z,110
2017-06-30T11:22:25.414Z,100
2017-06-30T11:23:25.160Z,90
2017-06-30T11:24:25.164Z,85
2017-06-30T11:25:25.484Z,90
2017-06-30T11:26:25.267Z,100
2017-06-30T11:27:25.540Z,100
2017-06-30T11:28:25.573Z,125
2017-06-30T11:29:25.568Z,145
2017-06-30T11:30:25.652Z,160
2017-06-30T11:31:25.622Z,170
2017-06-30T11:32:25.672Z,155
2017-06-30T11:33:25.754Z,155
2017-06-30T11:34:25.773Z,160
2017-06-30T11:35:25.726Z,170
2017-06-30T11:36:25.852Z,175
2017-06-30T11:37:55.014Z,160
2017-06-30T11:38:25.813Z,165
2017-06-30T11:39:40.464Z,165
2017-06-30T11:40:40.497Z,160
2017-06-30T11:41:40.788Z,145
2017-06-30T11:43:25.959Z,125
2017-06-30T11:44:25.983Z,120
2017-06-30T11:45:26.101Z,100
2017-06-30T11:46:40.614Z,95
2017-06-30T11:47:40.650Z,85
2017-06-30T11:48:26.138Z,85
2017-06-30T11:49:26.090Z,110
2017-06-30T11:51:40.756Z,135
2017-06-30T11:52:40.779Z,115
2017-06-30T11:53:40.799Z,125
2017-06-30T11:54:26.215Z,135
2017-06-30T11:55:40.849Z,140
2017-06-30T11:56:25.974Z,145
2017-06-30T11:58:26.638Z,150
2017-06-30T11:59:40.953Z,130
2017-06-30T12:00:40.688Z,125
2017-06-30T12:01:26.413Z,130
2017-06-30T12:02:41.042Z,145
2017-06-30T12:03:26.507Z,155
2017-06-30T12:04:26.193Z,165
2017-06-30T12:05:26.718Z,175
2017-06-30T12:06:26.221Z,175
2017-06-30T12:07:26.257Z,180
2017-06-30T12:08:26.571Z,180
2017-06-30T12:09:41.280Z,175
2017-06-30T12:10:26.634Z,175
2017-06-30T12:11:26.710Z,180
2017-06-30T12:13:26.699Z,185
2017-06-30T12:14:26.755Z,190
2017-06-30T12:15:26.570Z,190
2017-06-30T12:16:26.811Z,190
2017-06-30T12:17:26.522Z,190
2017-06-30T12:18:41.231Z,205
2017-06-30T12:19:41.485Z,200
2017-06-30T12:20:26.623Z,200
2017-06-30T12:21:26.943Z,190
2017-06-30T12:22:26.390Z,180
2017-06-30T12:23:26.366Z,190
2017-06-30T12:24:26.997Z,195
2017-06-30T12:25:41.708Z,200
2017-06-30T12:26:27.067Z,200
2017-06-30T12:28:26.907Z,205
2017-06-30T12:29:27.129Z,210
2017-06-30T12:30:26.851Z,215
2017-06-30T12:31:26.867Z,220
2017-06-30T12:32:27.306Z,215
2017-06-30T12:34:27.264Z,215
2017-06-30T12:35:27.318Z,215
2017-06-30T12:36:27.319Z,210
2017-06-30T12:37:27.346Z,205
2017-06-30T12:38:27.382Z,210
2017-06-30T12:39:27.074Z,205
2017-06-30T12:40:42.033Z,215
2017-06-30T12:41:27.443Z,220
2017-06-30T12:42:27.264Z,215
2017-06-30T12:43:27.489Z,205
2017-06-30T12:44:26.927Z,190
2017-06-30T12:45:27.571Z,185
2017-06-30T12:46:27.584Z,180
2017-06-30T12:47:27.598Z,170
2017-06-30T12:48:27.366Z,170
2017-06-30T12:49:42.313Z,155
2017-06-30T12:50:27.680Z,150
2017-06-30T12:51:27.786Z,140
2017-06-30T12:52:27.744Z,135
2017-06-30T12:53:27.780Z,140
2017-06-30T12:54:27.789Z,155
2017-06-30T12:55:28.163Z,150
2017-06-30T12:57:27.884Z,140
2017-06-30T12:58:27.966Z,145
2017-06-30T12:59:27.919Z,170
2017-06-30T13:00:27.957Z,205
2017-06-30T13:01:28.061Z,225
2017-06-30T13:02:27.707Z,240
2017-06-30T13:03:28.017Z,245
2017-06-30T13:04:28.082Z,250
2017-06-30T13:05:28.155Z,245
2017-06-30T13:06:28.107Z,230
2017-06-30T13:07:28.150Z,220
2017-06-30T13:09:42.787Z,170
2017-06-30T13:10:28.285Z,145
2017-06-30T13:11:28.229Z,135
2017-06-30T13:12:42.920Z,135
2017-06-30T13:13:28.294Z,135
2017-06-30T13:14:42.626Z,135
2017-06-30T13:15:28.153Z,130
2017-06-30T13:16:42.652Z,140
2017-06-30T13:17:27.792Z,170
2017-06-30T13:18:28.486Z,195
2017-06-30T13:19:28.522Z,205
2017-06-30T13:20:43.069Z,215
2017-06-30T13:21:28.520Z,225
2017-06-30T13:22:28.846Z,240
2017-06-30T13:23:28.562Z,250
2017-06-30T13:24:43.175Z,255
2017-06-30T13:25:28.461Z,255
2017-06-30T13:26:28.349Z,255
2017-06-30T13:27:28.369Z,245
2017-06-30T13:28:43.315Z,220
2017-06-30T13:29:28.719Z,205
2017-06-30T13:30:43.347Z,190
2017-06-30T13:31:29.073Z,185
2017-06-30T13:32:28.822Z,180
2017-06-30T13:33:28.516Z,170
2017-06-30T13:34:28.560Z,155
2017-06-30T13:36:29.185Z,140
2017-06-30T13:37:28.919Z,135
2017-06-30T13:38:28.992Z,135
2017-06-30T13:39:29.100Z,140
2017-06-30T13:41:29.059Z,115
2017-06-30T13:42:43.355Z,105
2017-06-30T13:43:28.902Z,105
2017-06-30T13:44:43.722Z,95
2017-06-30T13:45:29.165Z,95
2017-06-30T13:46:28.565Z,95
2017-06-30T13:47:29.232Z,95
2017-06-30T13:48:29.276Z,90
2017-06-30T13:49:28.954Z,95
2017-06-30T13:51:29.306Z,100
2017-06-30T13:52:29.354Z,105
2017-06-30T13:53:29.063Z,105
2017-06-30T13:54:29.105Z,105
2017-06-30T13:56:29.442Z,115
2017-06-30T13:57:29.469Z,125
2017-06-30T13:58:29.526Z,135
2017-06-30T13:59:29.533Z,145
2017-06-30T14:00:44.510Z,160
2017-06-30T14:01:29.263Z,170
2017-06-30T14:02:29.312Z,175
2017-06-30T14:03:29.322Z,175
2017-06-30T14:04:29.413Z,170
2017-06-30T14:05:29.684Z,160
2017-06-30T14:06:29.404Z,150
2017-06-30T14:07:44.333Z,135
2017-06-30T14:08:29.461Z,125
2017-06-30T14:09:29.184Z,115
2017-06-30T14:11:29.854Z,95
2017-06-30T14:12:29.562Z,85
2017-06-30T14:13:44.487Z,80
2017-06-30T14:14:29.942Z,85
2017-06-30T14:15:44.554Z,85
2017-06-30T14:16:30.042Z,90
2017-06-30T14:17:30.037Z,90
2017-06-30T14:18:44.623Z,85
2017-06-30T14:19:29.453Z,70
2017-06-30T14:20:30.082Z,55
2017-06-30T14:21:30.135Z,40
2017-06-30T14:22:30.142Z,25
2017-06-30T14:23:29.873Z,25
2017-06-30T14:25:30.247Z,40
2017-06-30T14:26:30.223Z,45
2017-06-30T14:27:44.560Z,55
2017-06-30T14:28:30.283Z,60
2017-06-30T14:29:30.347Z,65
2017-06-30T14:30:30.086Z,65
2017-06-30T14:31:30.382Z,65
2017-06-30T14:32:30.089Z,65
2017-06-30T14:33:30.414Z,65
2017-06-30T14:34:30.473Z,70
2017-06-30T14:35:30.174Z,70
2017-06-30T14:36:45.148Z,75
2017-06-30T14:37:30.230Z,75
2017-06-30T14:38:30.552Z,75
2017-06-30T14:39:30.570Z,75
2017-06-30T14:40:45.201Z,65
2017-06-30T14:41:45.226Z,55
2017-06-30T14:42:30.353Z,55
2017-06-30T14:43:30.686Z,55
2017-06-30T14:44:30.689Z,50
2017-06-30T14:45:30.737Z,50
2017-06-30T14:46:30.441Z,50
2017-06-30T14:47:59.689Z,50
2017-06-30T14:48:45.401Z,50
2017-06-30T14:49:30.836Z,50
2017-06-30T14:50:30.551Z,50
2017-06-30T14:51:45.165Z,50
2017-06-30T14:52:30.911Z,45
2017-06-30T14:53:30.947Z,45
2017-06-30T14:54:45.560Z,45
2017-06-30T14:55:30.991Z,45
2017-06-30T14:56:31.134Z,45
2017-06-30T14:57:45.319Z,45
2017-06-30T14:58:30.761Z,45
2017-06-30T14:59:31.097Z,50
2017-06-30T15:00:31.126Z,50
2017-06-30T15:01:31.128Z,50
2017-06-30T15:02:30.916Z,50
2017-06-30T15:03:45.770Z,50
2017-06-30T15:04:31.233Z,50